CheckWX is a tool to help pilots better visualize weather data.  It is not intended as a substitute for an official pre-flight weather briefing.

15:11:45 UTC

TFFR METAR
Pointe-à-Pitre Le Raizet Airport
Pointe-à-Pitre Le Raizet, Guadeloupe
Current

12 mins ago

TFFR 261500Z AUTO 16008KT 130V190 9999 BKN028 BKN036 BKN043 28/22 Q1016
Observed
Jan-26 @ 15:00 UTC
Wind
  • 160° at 8 KTS
Visibility
10,000+ meters
Flight Rules
MVFR
Cloud Levels
  • Broken at 2,800' AGL
  • Broken at 3,600' AGL
  • Broken at 4,300' AGL
Temperature
28°C / 82°F
Dewpoint
22°C / 72°F
Heat Index
30°C / 86°F
Humidity
70%
Altimeter
30" Hg
Pressure
1015.92 hPa
Previous

42 mins ago

TFFR 261430Z AUTO 16006KT 110V200 9999 SCT026 BKN033 28/21 Q1016
Observed
Jan-26 @ 14:30 UTC
Wind
  • 160° at 6 KTS
Visibility
10,000+ meters
Flight Rules
VFR
Cloud Levels
  • Scattered at 2,600' AGL
  • Broken at 3,300' AGL
Temperature
28°C / 82°F
Dewpoint
21°C / 70°F
Heat Index
30°C / 86°F
Humidity
66%
Altimeter
30" Hg
Pressure
1015.92 hPa
Previous

1 hour ago

TFFR 261400Z AUTO 16008KT 130V190 9999 FEW024 BKN033 28/22 Q1016
Observed
Jan-26 @ 14:00 UTC
Wind
  • 160° at 8 KTS
Visibility
10,000+ meters
Flight Rules
VFR
Cloud Levels
  • Few at 2,400' AGL
  • Broken at 3,300' AGL
Temperature
28°C / 82°F
Dewpoint
22°C / 72°F
Heat Index
30°C / 86°F
Humidity
70%
Altimeter
30" Hg
Pressure
1015.92 hPa